Date,TemperatureHighF,TemperatureAvgF,TemperatureLowF,DewpointHighF,DewpointAvgF,DewpointLowF,HumidityHigh,HumidityAvg,HumidityLow,PressureMaxIn,PressureMinIn,WindSpeedMaxMPH,WindSpeedAvgMPH,GustSpeedMaxMPH,PrecipitationSumIn
2014-1-1,21,16,9,18,13,7,93,90,87,29.47,29.23,0,0,0,0.00
2014-1-2,9,6,1,7,3,-2,92,89,87,30.05,29.45,0,0,0,0.00
2014-1-3,19,14,5,17,12,3,94,92,88,30.28,30.05,0,0,0,0.00
2014-1-4,20,13,8,19,11,5,95,92,90,30.29,29.69,0,0,0,0.00
2014-1-5,21,19,16,20,17,14,95,93,90,29.69,29.53,0,0,0,0.00
2014-1-6,24,17,12,23,16,10,96,94,91,29.69,29.59,0,0,0,0.00
2014-1-7,17,14,10,15,12,8,95,93,91,29.63,29.40,0,0,0,0.00
2014-1-8,18,15,12,17,13,10,95,93,91,29.40,29.26,0,0,0,0.00
2014-1-9,12,7,-1,10,4,-4,92,90,87,29.48,29.27,0,0,0,0.00
2014-1-10,1,-5,-14,-2,-8,-18,90,87,84,29.55,29.48,0,0,0,0.00
2014-1-11,-11,-20,-24,-14,-23,-28,86,82,80,29.51,29.31,0,0,0,0.00
2014-1-12,-19,-23,-28,-23,-27,-33,83,81,79,29.46,29.24,0,0,0,0.00
2014-1-13,2,-12,-29,0,-15,-33,90,85,79,29.57,29.29,0,0,0,0.00
2014-1-14,9,1,-12,7,-2,-16,92,88,84,29.52,28.93,0,0,0,0.00
2014-1-15,8,-1,-8,7,-4,-11,92,88,85,29.78,29.52,0,0,0,0.00
2014-1-16,18,11,8,16,9,6,94,92,90,29.76,29.39,0,0,0,0.00
2014-1-17,28,22,11,27,21,9,96,94,91,29.74,29.00,0,0,0,0.00
2014-1-18,20,13,6,18,11,4,93,91,88,29.68,28.96,0,0,0,0.00
2014-1-19,18,11,5,16,9,3,95,92,89,29.93,29.69,0,0,0,0.00
2014-1-20,33,26,15,27,22,13,93,86,77,29.83,29.66,0,0,0,0.00
2014-1-21,34,31,28,28,24,22,86,77,66,29.65,29.36,0,0,0,0.00
2014-1-22,36,30,27,30,28,25,97,91,81,29.74,29.45,0,0,0,0.00
2014-1-23,34,32,30,34,31,29,99,95,83,29.71,29.41,0,0,0,0.00
2014-1-24,40,35,28,38,33,27,99,95,86,30.07,29.46,5,0,5,0.57
2014-1-25,40,33,27,34,30,26,98,90,77,30.10,29.87,2,0,5,0.05
2014-1-26,42,36,31,34,32,28,93,84,69,29.92,29.83,3,1,3,0.13
2014-1-27,33,29,26,29,27,24,95,90,82,29.90,29.72,2,0,3,0.00
2014-1-28,30,26,20,27,22,18,91,87,80,29.95,29.76,1,0,2,0.00
2014-1-29,23,18,14,20,17,12,95,93,89,30.08,29.95,1,0,1,0.00
2014-1-30,14,10,9,12,8,7,94,92,91,30.13,30.08,0,0,0,0.00
2014-1-31,9,9,9,7,7,7,91,91,91,30.13,30.13,0,0,0,0.00
2014-2-1,9,9,9,7,7,7,91,91,91,30.13,30.13,0,0,0,0.00
2014-2-6,3,2,1,1,-1,-2,87,87,86,29.73,29.54,0,0,0,0.00
2014-2-7,1,0,-1,-2,-3,-5,86,85,85,29.54,29.35,0,0,1,0.00
2014-2-8,-1,-2,-4,-5,-6,-7,85,84,84,29.35,29.16,0,0,1,0.00
2014-2-9,-4,-5,-6,-7,-8,-10,84,83,82,29.16,28.96,0,0,1,0.00
2014-2-10,-6,-7,-8,-10,-11,-12,82,82,81,28.96,28.77,0,0,1,0.00
2014-2-11,-8,-9,-11,-12,-14,-15,81,81,80,28.77,28.58,0,0,1,0.00
2014-2-12,-11,-12,-13,-15,-16,-18,80,80,78,28.58,28.37,2,0,3,0.00